• Join FlightAware (Why Join?)
  • Login
  • US Flag 
02:13PM EDT


 

Airport Tracker/Info


-or-


 

Live Flight TrackerFlight Track Log ✈ SWA16 ✈ 07-May-2013 ✈ KHOU - KDAL

Flight Track Log - Related Links

Times and Time Zones

All times are in EDT time to prevent confusion due to time zone crossing. See the SWA16 flight status page for this flight to view local times or setup timezone preferences in your user account.

Time Position Orientation Groundspeed Altitude Reporting Facility
EDT Latitude Longitude Course Direction KTS MPH feet Rate Location/Type
11:08AM 29.6564 -95.2394 39° Northeast 234 269 2,200  Level Houston Center
11:09AM 29.7236 -95.2611 344° North 244 281 4,800 3,000 Climbing Houston Center
11:10AM 29.7972 -95.2831 345° North 266 306 8,500 3,000 Climbing Houston Center
11:11AM 29.8733 -95.3028 347° North 276 318 11,100 3,420 Climbing Houston Center
11:12AM 29.9783 -95.3306 347° North 317 365 15,600 3,720 Climbing Houston Center
11:13AM 29.9823 -95.3482 347° North  Level FlightAware Approximate
11:13AM 30.0733 -95.3553 347° North 344 396 18,800  Level Houston Center
11:14AM 30.1731 -95.3825 347° North 365 420 21,900 2,820 Climbing Houston Center
11:15AM 30.2764 -95.4092 347° North 377 434 24,700 2,820 Climbing Houston Center
11:16AM 30.3828 -95.4389 346° North 389 448 27,800 2,520 Climbing Houston Center
11:17AM 30.4867 -95.4642 348° North 382 440 30,000 1,020 Climbing Houston Center
11:18AM 30.6142 -95.4933 349° North 389 448 30,000  Level Houston Center
11:19AM 30.7197 -95.5164 349° North 387 445 30,000  Level Houston Center
11:21AM 30.8239 -95.5406 349° North 382 440 30,000  Level Houston Center
11:22AM 30.9300 -95.5647 349° North 384 442 30,000  Level Houston Center
11:23AM 31.0364 -95.5889 349° North 386 444 30,000  Level Houston Center
11:24AM 31.1628 -95.6172 349° North 385 443 30,000  Level Houston Center
11:25AM 31.2803 -95.6439 349° North 391 450 30,000  Level Fort Worth Center
11:26AM 31.3831 -95.6758 345° North 384 442 30,000  Level Fort Worth Center
11:27AM 31.4736 -95.7375 330° Northwest 374 430 30,000  Level Fort Worth Center
11:28AM 31.5664 -95.8017 329° Northwest 374 430 30,000 -900 Level Fort Worth Center
11:29AM 31.6569 -95.8611 331° Northwest 379 436 28,300 -2,040 Descending Fort Worth Center
11:30AM 31.7389 -95.9158 330° Northwest 387 445 26,000 -2,400 Descending Fort Worth Center
11:31AM 31.8397 -95.9778 332° Northwest 374 430 23,500 -2,400 Descending Fort Worth Center
11:32AM 31.9261 -96.0328 332° Northwest 362 417 21,300 -2,280 Descending Fort Worth Center
11:33AM 32.0103 -96.0903 330° Northwest 352 405 19,000 -1,980 Descending Fort Worth Center
11:34AM 32.0858 -96.1408 330° Northwest 346 398 17,400 -1,920 Descending Fort Worth Center
11:35AM 32.1678 -96.1961 330° Northwest 336 387 15,200 -2,280 Descending Fort Worth Center
11:36AM 32.2456 -96.2417 334° Northwest 329 379 12,900 -2,280 Descending Fort Worth Center
11:37AM 32.3294 -96.2997 330° Northwest 323 372 10,700 -1,500 Descending Fort Worth Center
11:38AM 32.3967 -96.3431 331° Northwest 307 353 9,900 -1,140 Descending Fort Worth Center
11:39AM 32.4703 -96.3914 331° Northwest 290 334 8,500 -1,200 Descending Fort Worth Center
11:40AM 32.5331 -96.4278 334° Northwest 280 322 7,500 -1,020 Descending Fort Worth Center
11:41AM 32.6064 -96.4739 332° Northwest 275 316 6,500 -1,020 Descending Fort Worth Center
11:42AM 32.6672 -96.5103 333° Northwest 269 310 5,500 -780 Descending Fort Worth Center
11:43AM 32.7303 -96.5689 322° Northwest 269 310 5,000 -300 Descending Fort Worth Center
11:44AM 32.7808 -96.6228 318° Northwest 269 310 5,000 -480 Level Fort Worth Center
11:45AM 32.8439 -96.6839 321° Northwest 263 303 4,100 -1,020 Descending Fort Worth Center
11:46AM 32.8983 -96.7453 317° Northwest 263 303 3,000 -600 Descending Fort Worth Center
11:47AM 32.9447 -96.8069 312° West 255 293 3,000  Level Fort Worth Center
11:48AM 32.9469 -96.8664 273° West 218 251 3,000 -360 Level Fort Worth Center
11:49AM 32.9158 -96.8986 221° Southwest 157 181 2,300 -1,020 Descending Fort Worth Center
11:50AM 32.8761 -96.8842 163° South 118 136 1,000 -1,320 Descending Fort Worth Center
11:52AM 32.8471 -96.8518 194° South  Level Estimated
11:59AM 32.8471 -96.8518 194° South  Level Estimated